Aérodrome :
LOGIN :

S'inscrire | Disclaimer

   EN    FR    IT 

 










Légende :    VFR   VFR Marginal   IFR   IFR Intensif   IFR Très Intensif
Visi : 
Plafond : 
>= 8 km
>= 3000ft
5 à 8 km
1000 à 3000 ft
1500m à 5 km
500 à 1000 ft
800 à 1500m
200 à 500 ft
< 800m
< 200 ft
Symboles :   Orages  Brouillard  Fortes neiges  Fortes précipitations  Vent > 20 kt
SIGMETs :   Divers  Orages  Givrage  Turbulence  Onde Orograph.  Cendres Volcan.






- Altitude de l'aérodrome : 106 ft
- Code IATA : XDA


LFBY - Dax Seyresse

DERNIER METAR :
  • 151030Z AUTO 22012KT 180V250 9999 // ////// 18/06 Q1010

METARs EXPIRÉS :
  • 151000Z AUTO 21009KT 180V240 9999 // ////// 18/06 Q1010
  • 150930Z AUTO 21007KT 180V240 9999 // ////// 17/07 Q1009
  • 150900Z AUTO 21006KT 170V240 9999 // ////// 16/06 Q1009
  • 150830Z AUTO 22006KT 9999 // ////// 14/06 Q1009
  • 150800Z AUTO 18003KT 9999 // ////// 13/05 Q1009

Prévision TAF périmée.



MET'MAP, la Météo Aéronautique d'un coup d'oeil ! - Copyright ORBIFLY Décembre 2007 - Disclaimer

ORBIFLY MET'MAP TEAM :

Programmation & Développement : Alexandra Zaïnal
Sur une idée originale de : Baudouin d'Aumeries
Assistance à la programmation : Marc-Olivier Méhu
Soutien technique & logistique : Manuel Goepfert

Contact : metmap@orbifly.com




SOURCES & CREDITS :

   NOAA